Time;durP1;ratioP1;P1;durP2;ratioP2;P2;SDS_P1;SDS_P2;PMS_P1;PMS_P2;Temp;Humidity;BMP_temperature;BMP_pressure;BME280_temperature;BME280_humidity;BME280_pressure;Samples;Min_cycle;Max_cycle;Signal;HPM_P1;HPM_P2
2022/06/17 00:00:19;;;;;;;2.07;1.83;;;;;;;16.67;57.85;101530.03;4959000;28;20208;-85
2022/06/17 00:02:45;;;;;;;2.27;1.77;;;;;;;16.65;57.85;101531.84;4957965;28;20742;-85
2022/06/17 00:05:12;;;;;;;2.97;1.83;;;;;;;16.57;58.42;101525.91;4961906;28;20630;-85
2022/06/17 00:07:40;;;;;;;2.50;2.00;;;;;;;16.58;58.13;101511.81;4961211;28;20212;-85
2022/06/17 00:10:16;;;;;;;3.30;2.00;;;;;;;16.54;58.01;101522.50;4962117;28;20225;-84
2022/06/17 00:12:43;;;;;;;2.23;1.90;;;;;;;16.52;58.05;101526.94;4962541;28;20212;-85
2022/06/17 00:15:13;;;;;;;2.47;2.10;;;;;;;16.46;58.46;101526.19;4961368;28;20216;-85
2022/06/17 00:17:43;;;;;;;1.90;1.80;;;;;;;16.48;58.43;101516.47;4961377;28;20266;-85
2022/06/17 00:20:14;;;;;;;2.67;1.70;;;;;;;16.43;58.67;101504.31;4961780;28;20208;-85
2022/06/17 00:22:42;;;;;;;2.00;1.80;;;;;;;16.34;59.30;101499.31;4961758;28;20634;-85
2022/06/17 00:25:16;;;;;;;1.83;1.73;;;;;;;16.34;59.20;101499.31;4961494;28;20674;-84
2022/06/17 00:27:45;;;;;;;2.60;2.07;;;;;;;16.31;59.66;101494.09;4961278;28;20508;-85
2022/06/17 00:30:16;;;;;;;2.90;2.13;;;;;;;16.26;59.04;101487.19;4962133;28;20908;-85
2022/06/17 00:32:44;;;;;;;2.60;2.03;;;;;;;16.28;59.12;101493.28;4961902;28;20215;-85
2022/06/17 00:35:11;;;;;;;2.90;1.73;;;;;;;16.31;58.85;101497.59;4962118;28;20216;-84
2022/06/17 00:37:37;;;;;;;2.30;1.80;;;;;;;16.25;58.54;101517.06;4961181;28;20299;-85
2022/06/17 00:40:11;;;;;;;2.20;1.80;;;;;;;16.25;58.52;101526.72;4961731;28;20232;-85
2022/06/17 00:42:38;;;;;;;2.27;2.07;;;;;;;15.88;58.53;101541.66;4962236;28;20283;-85
2022/06/17 00:45:12;;;;;;;3.27;2.27;;;;;;;15.12;60.85;101533.63;4963475;28;20255;-85
2022/06/17 00:47:44;;;;;;;2.70;2.50;;;;;;;14.74;62.53;101480.03;4962914;28;20239;-85
2022/06/17 00:50:19;;;;;;;3.13;2.30;;;;;;;14.47;63.80;101424.47;4963339;28;20241;-85
2022/06/17 00:52:51;;;;;;;2.47;2.20;;;;;;;14.54;64.63;101354.28;4962441;28;20219;-86
2022/06/17 00:55:26;;;;;;;3.30;2.50;;;;;;;14.52;64.25;101342.09;4962292;29;20211;-86
2022/06/17 00:57:52;;;;;;;2.87;2.63;;;;;;;14.26;64.70;101344.31;4961252;28;20265;-85
2022/06/17 01:00:22;;;;;;;3.20;2.90;;;;;;;14.16;65.36;101347.19;4961939;28;20263;-85
2022/06/17 01:02:51;;;;;;;3.90;2.80;;;;;;;14.02;65.63;101337.78;4961011;28;20238;-84
2022/06/17 01:05:21;;;;;;;2.77;2.50;;;;;;;14.00;66.28;101317.72;4961599;28;20215;-85
2022/06/17 01:07:51;;;;;;;2.87;2.57;;;;;;;13.99;66.39;101306.34;4960408;28;20210;-84
2022/06/17 01:10:19;;;;;;;3.27;2.80;;;;;;;14.05;66.25;101290.50;4961983;28;20716;-85
2022/06/17 01:12:50;;;;;;;2.57;2.37;;;;;;;13.99;66.49;101277.47;4961542;28;20207;-85
2022/06/17 01:15:20;;;;;;;3.53;3.10;;;;;;;14.07;67.08;101254.56;4960572;28;20632;-85
2022/06/17 01:17:48;;;;;;;2.60;2.40;;;;;;;14.04;66.97;101246.75;4960861;28;20279;-85
2022/06/17 01:20:15;;;;;;;2.70;2.50;;;;;;;13.90;67.25;101260.16;4962453;28;20209;-85
2022/06/17 01:22:45;;;;;;;4.03;2.70;;;;;;;13.87;66.91;101246.22;4961402;28;20257;-84
2022/06/17 01:25:16;;;;;;;2.53;2.33;;;;;;;13.90;67.83;101241.78;4961327;28;20252;-85
2022/06/17 01:27:45;;;;;;;3.07;2.53;;;;;;;13.84;67.44;101234.03;4961023;28;20677;-85
2022/06/17 01:30:15;;;;;;;2.60;2.40;;;;;;;13.85;67.11;101246.22;4962045;28;20207;-86
2022/06/17 01:32:45;;;;;;;3.60;2.30;;;;;;;14.00;67.42;101245.09;4962210;28;20205;-85
2022/06/17 01:35:12;;;;;;;2.97;2.50;;;;;;;14.16;67.08;101258.75;4962600;28;20213;-85
2022/06/17 01:37:38;;;;;;;2.47;2.27;;;;;;;14.28;66.65;101260.28;4961436;28;20215;-85
2022/06/17 01:40:07;;;;;;;2.30;2.10;;;;;;;14.42;66.22;101278.38;4960872;28;20260;-84
2022/06/17 01:42:36;;;;;;;3.20;2.30;;;;;;;14.49;65.83;101288.72;4961396;28;20212;-86
2022/06/17 01:45:03;;;;;;;3.03;2.30;;;;;;;14.60;65.28;101301.63;4961823;28;20213;-85
2022/06/17 01:47:32;;;;;;;2.60;2.40;;;;;;;14.64;64.96;101319.06;4962188;28;20257;-84
2022/06/17 01:50:04;;;;;;;2.63;2.30;;;;;;;14.69;64.69;101337.38;4961290;28;20225;-84
2022/06/17 01:52:35;;;;;;;3.07;2.43;;;;;;;14.69;64.17;101369.78;4959641;28;20231;-85
2022/06/17 01:55:07;;;;;;;4.00;2.13;;;;;;;14.59;64.06;101386.63;4965709;28;20633;-84
2022/06/17 01:57:40;;;;;;;2.70;2.50;;;;;;;14.36;64.04;101394.91;4965865;28;20661;-85
2022/06/17 02:00:12;;;;;;;4.60;2.33;;;;;;;14.42;64.86;101392.16;4967009;28;20224;-83
2022/06/17 02:02:40;;;;;;;2.40;2.20;;;;;;;14.46;64.76;101367.56;4968059;28;20212;-84
2022/06/17 02:05:10;;;;;;;2.27;2.07;;;;;;;14.36;64.12;101387.03;4969193;28;20227;-84
2022/06/17 02:07:42;;;;;;;2.27;2.07;;;;;;;14.22;64.94;101408.31;4967010;28;20703;-83
2022/06/17 02:10:10;;;;;;;3.03;2.67;;;;;;;14.20;64.92;101394.34;4966509;28;20204;-85
2022/06/17 02:12:38;;;;;;;3.17;2.70;;;;;;;14.27;64.63;101392.47;4967704;28;20287;-85
2022/06/17 02:15:06;;;;;;;2.70;2.50;;;;;;;14.28;64.79;101394.22;4968056;28;20200;-85
2022/06/17 02:17:39;;;;;;;2.30;2.10;;;;;;;14.31;64.84;101383.66;4964628;28;20206;-85
2022/06/17 02:20:08;;;;;;;3.57;2.17;;;;;;;14.34;65.43;101395.84;4967203;28;20728;-84
2022/06/17 02:22:36;;;;;;;2.70;2.50;;;;;;;14.26;64.84;101402.09;4967688;28;20215;-84
2022/06/17 02:25:07;;;;;;;2.83;2.40;;;;;;;14.19;65.47;101395.25;4963758;28;20706;-85
2022/06/17 02:27:35;;;;;;;3.13;2.63;;;;;;;14.15;65.98;101380.44;4964029;28;20626;-84
2022/06/17 02:30:05;;;;;;;3.83;2.40;;;;;;;14.26;65.63;101364.47;4967378;28;20231;-84
2022/06/17 02:32:32;;;;;;;2.97;2.40;;;;;;;14.20;65.59;101370.72;4964891;28;20215;-85
2022/06/17 02:35:01;;;;;;;2.97;2.70;;;;;;;14.13;65.98;101370.84;4968493;28;20205;-83
2022/06/17 02:37:30;;;;;;;2.33;2.13;;;;;;;14.11;66.24;101355.13;4966775;28;20199;-85
2022/06/17 02:40:00;;;;;;;3.40;2.30;;;;;;;14.15;66.42;101342.81;4968288;28;20215;-85
2022/06/17 02:42:31;;;;;;;2.30;2.20;;;;;;;14.13;65.98;101324.44;4969861;28;20213;-82
2022/06/17 02:45:01;;;;;;;2.50;2.30;;;;;;;13.98;66.79;101320.38;4967488;28;20229;-85
2022/06/17 02:47:30;;;;;;;2.90;2.70;;;;;;;13.84;66.72;101304.88;4966951;28;20205;-85
2022/06/17 02:49:58;;;;;;;3.20;2.47;;;;;;;13.91;67.34;101292.50;4967672;28;20218;-84
2022/06/17 02:52:32;;;;;;;3.27;2.50;;;;;;;13.96;67.60;101287.19;4968546;28;20288;-85
2022/06/17 02:55:02;;;;;;;2.43;2.23;;;;;;;14.03;67.31;101291.41;4968510;28;20248;-84
2022/06/17 02:57:31;;;;;;;3.90;2.70;;;;;;;14.18;66.73;101295.50;4966906;28;20274;-84
2022/06/17 03:00:04;;;;;;;2.93;2.60;;;;;;;14.19;66.66;101307.72;4968813;28;20225;-85
2022/06/17 03:02:37;;;;;;;3.83;2.37;;;;;;;14.26;66.21;101325.94;4969517;28;20252;-85
2022/06/17 03:05:10;;;;;;;4.83;2.77;;;;;;;14.23;65.11;101354.91;4958688;28;20221;-85
2022/06/17 03:07:37;;;;;;;2.40;2.20;;;;;;;14.26;65.12;101367.97;4965030;28;20259;-85
2022/06/17 03:10:06;;;;;;;2.80;2.57;;;;;;;14.30;64.72;101376.66;4966260;28;20250;-85
2022/06/17 03:12:33;;;;;;;4.90;2.33;;;;;;;14.34;64.56;101387.97;4964962;28;20210;-85
2022/06/17 03:15:04;;;;;;;2.90;2.60;;;;;;;14.29;64.26;101395.91;4967507;28;20206;-85
2022/06/17 03:17:38;;;;;;;2.67;2.47;;;;;;;14.29;64.29;101396.81;4968791;28;20205;-85
2022/06/17 03:20:08;;;;;;;2.97;2.60;;;;;;;14.39;64.45;101393.97;4968675;28;20223;-85
2022/06/17 03:22:36;;;;;;;2.90;2.17;;;;;;;14.33;64.66;101392.38;4974945;28;20265;-85
2022/06/17 03:25:07;;;;;;;4.23;2.43;;;;;;;14.20;65.92;101389.09;4958610;29;20252;-85
2022/06/17 03:27:39;;;;;;;4.20;3.07;;;;;;;14.19;66.01;101363.75;4939475;29;20208;-85
2022/06/17 03:30:07;;;;;;;3.00;2.70;;;;;;;14.21;65.76;101361.06;4939633;29;20239;-85
2022/06/17 03:32:38;;;;;;;4.60;2.60;;;;;;;14.26;66.31;101354.84;4939747;29;20215;-85
2022/06/17 03:35:05;;;;;;;3.10;2.30;;;;;;;14.33;66.32;101336.31;4940558;29;20275;-85
2022/06/17 03:37:38;;;;;;;3.13;2.77;;;;;;;14.39;66.27;101346.69;4939665;29;20290;-85
2022/06/17 03:40:12;;;;;;;4.20;2.53;;;;;;;14.45;66.10;101357.13;4943069;29;20257;-85
2022/06/17 03:42:51;;;;;;;4.23;2.63;;;;;;;14.49;65.96;101351.75;4943561;29;20266;-85
2022/06/17 03:45:22;;;;;;;3.03;2.40;;;;;;;14.62;65.39;101351.53;4944655;29;20704;-85
2022/06/17 03:47:57;;;;;;;4.03;3.20;;;;;;;14.68;65.59;101360.13;4943812;29;20208;-86
2022/06/17 03:50:28;;;;;;;2.87;2.33;;;;;;;14.76;65.63;101365.22;4943991;29;20212;-84
2022/06/17 03:52:58;;;;;;;2.70;2.40;;;;;;;14.75;65.04;101383.69;4950038;29;20678;-85
2022/06/17 03:55:26;;;;;;;3.27;2.87;;;;;;;14.67;65.50;101381.22;4962177;28;20236;-85
2022/06/17 03:57:56;;;;;;;4.13;2.60;;;;;;;14.61;65.60;101381.34;4962526;28;20211;-85
2022/06/17 04:00:28;;;;;;;4.00;2.10;;;;;;;14.66;65.78;101368.97;4962672;28;20211;-86
2022/06/17 04:02:59;;;;;;;4.07;2.63;;;;;;;14.56;65.44;101381.41;4963330;28;20240;-85
2022/06/17 04:05:26;;;;;;;2.93;2.43;;;;;;;14.64;66.02;101376.88;4962724;28;20293;-86
2022/06/17 04:07:52;;;;;;;2.90;2.60;;;;;;;14.61;65.77;101371.69;4962035;28;20215;-85
2022/06/17 04:10:23;;;;;;;3.60;2.60;;;;;;;14.67;65.87;101370.72;4960292;28;20223;-84
2022/06/17 04:12:51;;;;;;;3.17;2.87;;;;;;;14.78;65.55;101378.34;4961443;28;20219;-85
2022/06/17 04:15:32;;;;;;;3.00;2.47;;;;;;;14.91;65.68;101378.97;4961241;28;20206;-83
2022/06/17 04:17:59;;;;;;;3.60;2.57;;;;;;;15.02;65.97;101383.06;4960835;28;20211;-84
2022/06/17 04:20:38;;;;;;;3.07;2.57;;;;;;;15.12;66.39;101373.19;4961480;28;20216;-86
2022/06/17 04:23:11;;;;;;;2.30;2.10;;;;;;;15.21;67.00;101359.00;4960997;28;20224;-84
2022/06/17 04:25:43;;;;;;;2.70;2.50;;;;;;;15.25;67.33;101350.97;4960566;28;20224;-85
2022/06/17 04:28:12;;;;;;;2.57;2.37;;;;;;;15.33;67.06;101344.69;4960985;28;20232;-84
2022/06/17 04:30:42;;;;;;;3.23;2.93;;;;;;;15.36;66.91;101342.84;4961678;28;20223;-85
2022/06/17 04:33:22;;;;;;;3.70;2.33;;;;;;;15.41;66.84;101340.97;4961618;28;20215;-85
2022/06/17 04:35:51;;;;;;;3.27;2.40;;;;;;;15.46;66.61;101346.09;4961078;28;20632;-84
2022/06/17 04:38:18;;;;;;;4.70;2.97;;;;;;;15.50;66.52;101350.41;4960648;28;20295;-85
2022/06/17 04:40:48;;;;;;;5.13;2.50;;;;;;;15.54;66.49;101348.53;4960625;28;20779;-85
2022/06/17 04:43:24;;;;;;;2.33;2.10;;;;;;;15.58;66.10;101344.94;4960789;28;20238;-85
2022/06/17 04:45:55;;;;;;;3.20;3.00;;;;;;;15.65;66.38;101349.16;4960749;28;20211;-85
2022/06/17 04:48:23;;;;;;;2.77;2.57;;;;;;;15.60;67.13;101333.47;4959566;28;20236;-83
2022/06/17 04:50:50;;;;;;;2.60;2.40;;;;;;;15.58;67.81;101324.75;4959081;28;20731;-85
2022/06/17 04:53:17;;;;;;;4.07;3.67;;;;;;;15.58;67.63;101315.97;4960150;28;20219;-85
2022/06/17 04:55:45;;;;;;;2.60;2.40;;;;;;;15.58;68.15;101308.97;4961541;28;20235;-85
2022/06/17 04:58:14;;;;;;;3.57;3.33;;;;;;;15.62;67.68;101312.41;4959805;28;20236;-85
2022/06/17 05:00:45;;;;;;;3.60;3.30;;;;;;;15.71;66.56;101338.47;4960146;28;20212;-83
2022/06/17 05:03:12;;;;;;;5.70;4.00;;;;;;;15.78;67.01;101350.59;4960846;28;20214;-85
2022/06/17 05:05:42;;;;;;;5.07;3.60;;;;;;;15.79;68.10;101341.78;4960261;28;20301;-84
2022/06/17 05:08:13;;;;;;;3.97;3.67;;;;;;;15.80;69.39;101305.81;4960239;28;20287;-84
2022/06/17 05:10:44;;;;;;;3.67;3.30;;;;;;;15.80;69.26;101290.00;4959701;28;20216;-85
2022/06/17 05:13:17;;;;;;;3.23;2.97;;;;;;;15.81;70.01;101273.31;4959866;28;20211;-85
2022/06/17 05:15:43;;;;;;;3.27;2.97;;;;;;;15.78;69.63;101283.94;4960631;28;20212;-83
2022/06/17 05:18:10;;;;;;;6.47;3.30;;;;;;;15.81;70.09;101275.94;4959906;28;20275;-84
2022/06/17 05:20:36;;;;;;;3.10;2.80;;;;;;;15.85;70.02;101264.41;4959719;28;20223;-84
2022/06/17 05:23:06;;;;;;;3.70;3.50;;;;;;;15.87;70.25;101263.44;4959785;28;20215;-84
2022/06/17 05:25:35;;;;;;;3.07;2.60;;;;;;;15.92;70.61;101249.31;4952130;29;20287;-82
2022/06/17 05:28:01;;;;;;;3.73;3.30;;;;;;;15.89;70.87;101250.25;4959480;28;20267;-85
2022/06/17 05:30:33;;;;;;;3.40;3.10;;;;;;;15.81;71.88;101245.19;4959360;28;20243;-84
2022/06/17 05:33:00;;;;;;;3.70;3.40;;;;;;;15.64;72.22;101218.47;4960071;28;20212;-85
2022/06/17 05:35:26;;;;;;;4.07;3.77;;;;;;;15.26;74.38;101179.13;4959218;28;20207;-82
2022/06/17 05:37:53;;;;;;;4.40;4.00;;;;;;;15.13;75.56;101153.19;4959399;28;20209;-83
2022/06/17 05:40:21;;;;;;;4.60;4.20;;;;;;;15.26;74.76;101141.41;4959201;28;20214;-83
2022/06/17 05:42:49;;;;;;;4.63;4.23;;;;;;;15.27;73.72;101157.16;4958915;28;20211;-84
2022/06/17 05:45:21;;;;;;;4.60;4.20;;;;;;;15.40;72.46;101194.53;4959206;28;20232;-83
2022/06/17 05:47:47;;;;;;;4.40;4.00;;;;;;;15.47;71.62;101216.28;4958945;28;20215;-83
2022/06/17 05:50:15;;;;;;;6.33;4.27;;;;;;;15.47;70.79;101256.59;4958750;28;20212;-84
2022/06/17 05:52:52;;;;;;;4.83;3.70;;;;;;;15.70;70.33;101278.84;4959083;28;20235;-84
2022/06/17 05:55:21;;;;;;;7.00;3.70;;;;;;;15.83;68.94;101301.31;4957811;28;20202;-83
2022/06/17 05:57:47;;;;;;;7.13;3.37;;;;;;;15.83;67.99;101350.47;4958374;28;20274;-81
2022/06/17 06:00:16;;;;;;;3.43;3.20;;;;;;;15.94;68.39;101361.59;4958693;28;20211;-83
2022/06/17 06:02:42;;;;;;;3.43;3.13;;;;;;;16.04;68.51;101352.53;4957994;28;20702;-83
2022/06/17 06:05:13;;;;;;;4.07;3.33;;;;;;;16.02;67.51;101329.78;4958363;28;20232;-83
2022/06/17 06:07:39;;;;;;;6.07;3.30;;;;;;;16.13;67.84;101361.09;4960329;28;20276;-82
2022/06/17 06:10:08;;;;;;;3.40;3.10;;;;;;;16.07;66.38;101384.06;4970078;28;20223;-82
2022/06/17 06:12:57;;;;;;;3.73;3.20;;;;;;;16.20;66.70;101392.50;4969874;28;20207;-83
2022/06/17 06:15:25;;;;;;;3.13;2.83;;;;;;;16.26;65.48;101436.25;4970020;28;20230;-83
2022/06/17 06:17:52;;;;;;;6.87;3.00;;;;;;;16.26;64.91;101452.06;4969607;28;20240;-82
2022/06/17 06:20:18;;;;;;;3.07;2.77;;;;;;;16.41;65.55;101450.78;4976075;28;20210;-81
2022/06/17 06:22:45;;;;;;;6.13;3.23;;;;;;;16.54;63.37;101470.63;4974227;28;20267;-81
2022/06/17 06:25:13;;;;;;;3.47;3.10;;;;;;;16.65;63.76;101502.84;4960325;28;20279;-82
2022/06/17 06:27:40;;;;;;;3.43;2.70;;;;;;;16.68;62.74;101522.97;4960576;28;20902;-83
2022/06/17 06:30:15;;;;;;;4.13;2.80;;;;;;;16.79;62.70;101543.81;4958450;28;20228;-82
2022/06/17 06:32:47;;;;;;;4.30;2.80;;;;;;;16.81;61.42;101557.81;4959402;28;20216;-81
2022/06/17 06:35:15;;;;;;;3.10;2.70;;;;;;;16.95;61.13;101574.16;4958771;28;20622;-83
2022/06/17 06:37:41;;;;;;;4.87;3.10;;;;;;;16.99;60.39;101596.91;4959126;28;20219;-83
2022/06/17 06:40:09;;;;;;;3.47;2.70;;;;;;;17.13;60.77;101595.66;4958042;28;20236;-82
2022/06/17 06:42:35;;;;;;;4.00;2.50;;;;;;;17.22;60.32;101606.84;4958619;28;20208;-82
2022/06/17 06:45:03;;;;;;;3.37;2.83;;;;;;;17.26;60.64;101603.19;4959299;28;20290;-81
2022/06/17 06:47:30;;;;;;;4.00;2.50;;;;;;;17.30;61.32;101590.75;4957919;28;20206;-81
2022/06/17 06:49:56;;;;;;;6.07;2.50;;;;;;;17.42;60.90;101584.25;4957234;28;20321;-80
2022/06/17 06:52:22;;;;;;;6.37;2.97;;;;;;;17.41;58.56;101619.50;4957540;28;20640;-80
2022/06/17 06:54:50;;;;;;;3.47;2.80;;;;;;;17.52;59.22;101635.00;4956665;28;20734;-80
2022/06/17 06:57:16;;;;;;;6.17;2.50;;;;;;;17.53;59.38;101634.97;4957029;28;20303;-79
2022/06/17 06:59:42;;;;;;;3.03;2.70;;;;;;;17.58;58.60;101633.09;4957661;28;20282;-79
2022/06/17 07:02:10;;;;;;;3.00;2.80;;;;;;;17.64;59.49;101622.34;4957159;28;20235;-80
2022/06/17 07:04:36;;;;;;;3.63;2.83;;;;;;;17.81;59.67;101619.19;4956469;28;20236;-79
2022/06/17 07:07:04;;;;;;;3.27;2.90;;;;;;;17.86;57.61;101634.94;4959518;28;20216;-79
2022/06/17 07:09:31;;;;;;;2.90;2.60;;;;;;;17.90;57.05;101636.59;4962881;28;20223;-80
2022/06/17 07:11:57;;;;;;;3.67;2.70;;;;;;;18.08;58.09;101674.78;4969121;28;20219;-80
2022/06/17 07:14:23;;;;;;;3.53;3.00;;;;;;;18.15;58.21;101670.16;4969588;28;20193;-79
2022/06/17 07:16:50;;;;;;;4.13;2.67;;;;;;;18.19;55.92;101690.31;4963305;28;20212;-81
2022/06/17 07:19:19;;;;;;;2.93;2.70;;;;;;;18.17;55.82;101727.34;4963751;28;20294;-80
2022/06/17 07:21:48;;;;;;;4.93;2.60;;;;;;;18.26;54.85;101750.88;4964233;28;20305;-80
2022/06/17 07:24:15;;;;;;;2.73;2.53;;;;;;;18.35;54.22;101756.78;4963669;28;20686;-79
2022/06/17 07:26:42;;;;;;;3.43;2.50;;;;;;;18.44;53.38;101770.59;4964151;28;20212;-81
2022/06/17 07:29:08;;;;;;;2.70;2.30;;;;;;;18.47;53.50;101827.78;4963177;28;20283;-81
2022/06/17 07:31:35;;;;;;;3.03;2.33;;;;;;;18.64;53.57;101803.50;4964277;28;20217;-80
2022/06/17 07:34:01;;;;;;;2.53;2.33;;;;;;;18.62;50.84;101823.84;4964035;28;20216;-81
2022/06/17 07:42:00;;;;;;;2.90;2.40;;;;;;;18.78;49.74;101890.38;4963963;28;20211;-80
2022/06/17 07:44:27;;;;;;;2.63;2.43;;;;;;;18.82;50.05;101939.66;4963263;28;20216;-80
2022/06/17 07:46:53;;;;;;;2.63;2.43;;;;;;;18.90;51.20;101935.00;4964060;28;20209;-80
2022/06/17 07:49:20;;;;;;;2.50;2.30;;;;;;;18.98;51.78;101916.25;4963320;28;20287;-79
2022/06/17 07:51:48;;;;;;;2.53;2.33;;;;;;;19.03;50.45;101895.81;4963753;28;20216;-79
2022/06/17 07:54:14;;;;;;;2.43;2.27;;;;;;;19.08;50.73;101891.22;4962714;28;20264;-79
2022/06/17 07:56:41;;;;;;;3.00;2.67;;;;;;;19.18;50.99;101882.09;4962869;28;20303;-80
2022/06/17 07:59:07;;;;;;;3.17;2.43;;;;;;;19.16;50.83;101862.75;4963137;28;20256;-80
2022/06/17 08:01:34;;;;;;;3.20;2.90;;;;;;;19.21;51.62;101862.63;4972652;28;20205;-79
2022/06/17 08:04:00;;;;;;;3.20;2.90;;;;;;;19.12;52.10;101860.25;4980943;28;20200;-79
2022/06/17 08:06:27;;;;;;;2.80;2.40;;;;;;;19.23;52.04;101858.13;4999683;28;20207;-78
2022/06/17 08:08:55;;;;;;;2.93;2.60;;;;;;;19.24;52.24;101825.44;5002009;28;20227;-80
2022/06/17 08:11:22;;;;;;;10.03;2.90;;;;;;;19.33;52.05;101814.53;4985472;28;20211;-79
2022/06/17 08:13:49;;;;;;;2.60;2.33;;;;;;;19.38;49.21;101839.06;4983240;28;20271;-80
2022/06/17 08:16:15;;;;;;;2.13;1.93;;;;;;;19.33;49.00;101893.97;4982303;28;20210;-79
2022/06/17 08:18:42;;;;;;;2.80;2.60;;;;;;;19.42;48.00;101919.28;4982255;28;20235;-79
2022/06/17 08:21:11;;;;;;;3.10;2.20;;;;;;;19.54;49.00;101931.25;4982685;28;20266;-79
2022/06/17 08:23:37;;;;;;;2.60;2.40;;;;;;;19.62;48.71;101902.75;4969885;28;20204;-79
2022/06/17 08:26:05;;;;;;;2.97;2.50;;;;;;;19.59;47.89;101919.59;4960410;28;20224;-80
2022/06/17 08:28:31;;;;;;;2.93;2.40;;;;;;;19.71;48.36;101928.06;4959067;28;20287;-78
2022/06/17 08:30:58;;;;;;;5.90;2.50;;;;;;;19.73;48.92;101935.09;4960200;28;20260;-79
2022/06/17 08:33:28;;;;;;;4.53;2.60;;;;;;;19.86;48.77;101917.00;4959650;28;20214;-79
2022/06/17 08:35:56;;;;;;;3.63;2.30;;;;;;;19.89;48.75;101924.81;4958690;28;20211;-78
2022/06/17 08:38:26;;;;;;;2.17;2.07;;;;;;;19.98;48.44;101913.91;4958512;28;20250;-77
2022/06/17 08:40:57;;;;;;;2.50;2.37;;;;;;;20.07;49.05;101927.78;4959359;28;20647;-79
2022/06/17 08:43:38;;;;;;;3.30;2.60;;;;;;;20.17;49.25;101895.56;4958573;28;20208;-77
2022/06/17 08:46:12;;;;;;;3.67;2.60;;;;;;;20.19;49.27;101887.56;4958686;28;20793;-78
2022/06/17 08:48:51;;;;;;;3.13;2.83;;;;;;;20.30;49.95;101890.69;4958413;28;20230;-78
2022/06/17 08:51:31;;;;;;;3.47;2.87;;;;;;;20.14;48.88;101882.44;4958433;28;20643;-78
2022/06/17 08:54:11;;;;;;;2.30;2.07;;;;;;;20.27;49.67;101906.72;4959549;28;20204;-79
2022/06/17 08:56:44;;;;;;;2.60;2.30;;;;;;;20.30;49.92;101892.50;4952820;29;20244;-79
2022/06/17 08:59:29;;;;;;;3.10;2.33;;;;;;;20.35;49.52;101848.94;4958693;28;20232;-79
2022/06/17 09:02:05;;;;;;;3.37;2.70;;;;;;;20.36;49.17;101879.88;4958374;28;20209;-79
2022/06/17 09:04:57;;;;;;;3.90;2.40;;;;;;;20.34;50.11;101880.84;4959326;28;20687;-78
2022/06/17 09:07:38;;;;;;;2.53;2.33;;;;;;;20.43;49.37;101862.81;4958496;28;20319;-77
2022/06/17 09:10:14;;;;;;;3.67;2.20;;;;;;;20.48;50.06;101880.34;4959141;28;20221;-80
2022/06/17 09:12:52;;;;;;;2.40;2.20;;;;;;;20.63;51.66;101871.81;4959639;28;20341;-79
2022/06/17 09:15:31;;;;;;;13.83;2.73;;;;;;;20.63;49.24;101856.78;4959699;28;20264;-79
2022/06/17 09:18:05;;;;;;;2.53;2.33;;;;;;;20.78;49.09;101854.44;4964278;28;20328;-79
2022/06/17 09:20:36;;;;;;;2.60;2.30;;;;;;;20.56;47.15;101872.94;4964279;28;20237;-80
2022/06/17 09:23:05;;;;;;;2.13;1.93;;;;;;;20.71;47.81;101896.25;4963719;28;20212;-81
2022/06/17 09:25:39;;;;;;;2.20;2.00;;;;;;;20.86;47.70;101894.81;4952988;29;20219;-80
2022/06/17 09:28:11;;;;;;;2.00;1.90;;;;;;;20.99;47.27;101901.38;4959647;28;20263;-80
2022/06/17 09:30:45;;;;;;;2.10;1.90;;;;;;;21.08;46.53;101916.09;4960547;28;20217;-80
2022/06/17 09:33:18;;;;;;;2.10;2.00;;;;;;;21.16;46.24;101966.25;4959730;28;20204;-80
2022/06/17 09:35:50;;;;;;;2.07;1.97;;;;;;;21.22;45.60;101961.53;4957670;28;20260;-78
2022/06/17 09:38:22;;;;;;;2.83;2.43;;;;;;;21.16;45.62;102006.94;4957573;28;20317;-80
2022/06/17 09:40:55;;;;;;;3.00;2.33;;;;;;;21.23;46.52;102016.41;4958069;28;20213;-79
2022/06/17 09:43:27;;;;;;;2.23;2.03;;;;;;;21.42;46.20;101984.66;4958105;28;20300;-79
2022/06/17 09:46:01;;;;;;;2.03;1.83;;;;;;;21.65;45.68;102008.63;4958374;28;20232;-79
2022/06/17 09:48:34;;;;;;;2.27;2.00;;;;;;;21.80;44.52;102027.50;4958494;28;20229;-79
2022/06/17 09:51:06;;;;;;;2.20;2.00;;;;;;;21.82;44.27;102064.63;4958218;28;20213;-79
2022/06/17 09:53:39;;;;;;;2.00;1.90;;;;;;;21.82;44.23;102059.31;4958696;28;20264;-78
2022/06/17 09:56:10;;;;;;;2.20;1.60;;;;;;;22.00;44.25;102058.56;4959004;28;20193;-80
2022/06/17 09:58:41;;;;;;;3.00;1.90;;;;;;;22.20;43.52;102054.22;4958207;28;20272;-79
2022/06/17 10:01:09;;;;;;;2.63;2.20;;;;;;;21.86;43.87;102076.84;4958742;28;20261;-79
2022/06/17 10:03:38;;;;;;;2.20;1.87;;;;;;;21.83;44.11;102084.97;4957440;28;20215;-78
2022/06/17 10:06:21;;;;;;;2.00;1.80;;;;;;;21.73;43.30;102097.75;4959093;28;20229;-79
2022/06/17 10:09:00;;;;;;;2.10;1.80;;;;;;;21.99;43.66;102091.41;4958302;28;20239;-80
2022/06/17 10:11:33;;;;;;;2.50;1.60;;;;;;;22.16;43.17;102092.50;4956610;28;20205;-81
2022/06/17 10:14:14;;;;;;;1.50;1.40;;;;;;;22.38;43.85;102088.06;4958008;28;20259;-81
2022/06/17 10:19:45;;;;;;;1.93;1.77;;;;;;;22.72;43.83;102091.94;4969972;28;20234;-81
2022/06/17 10:22:23;;;;;;;1.77;1.50;;;;;;;22.74;42.75;102102.53;4261107;28;10000728;-80
2022/06/17 10:25:01;;;;;;;1.97;1.77;;;;;;;22.92;41.80;102099.03;4955646;28;20201;-81
2022/06/17 10:27:43;;;;;;;2.00;1.80;;;;;;;22.63;43.08;102112.75;4955610;28;20228;-79
2022/06/17 10:30:13;;;;;;;2.17;1.97;;;;;;;22.96;43.69;102087.31;4955930;28;20231;-80
2022/06/17 10:32:45;;;;;;;2.90;1.90;;;;;;;22.90;41.27;102068.97;4955992;28;20205;-79
2022/06/17 10:35:16;;;;;;;1.90;1.80;;;;;;;23.04;41.85;102110.13;4955861;28;20216;-80
2022/06/17 10:37:42;;;;;;;1.90;1.80;;;;;;;23.01;42.17;102127.06;4954500;28;20212;-81
2022/06/17 10:40:11;;;;;;;4.07;2.50;;;;;;;22.94;41.20;102128.28;4955090;28;20232;-81
2022/06/17 10:42:37;;;;;;;2.93;1.80;;;;;;;23.15;41.64;102145.13;4954855;28;20213;-80
2022/06/17 10:45:05;;;;;;;1.67;1.57;;;;;;;23.24;41.45;102144.72;4954910;28;20217;-81
2022/06/17 10:47:38;;;;;;;4.27;2.03;;;;;;;22.98;40.99;102149.38;4954691;28;20229;-80
2022/06/17 10:50:16;;;;;;;2.50;2.30;;;;;;;22.94;41.94;102153.09;4954876;28;20240;-80
2022/06/17 10:52:45;;;;;;;3.27;2.13;;;;;;;23.10;41.20;102141.81;4954648;28;20215;-80
2022/06/17 10:55:18;;;;;;;2.03;1.90;;;;;;;23.29;41.13;102144.50;4954415;28;20204;-81
2022/06/17 10:58:10;;;;;;;1.83;1.73;;;;;;;23.38;41.29;102157.41;4953856;28;20260;-80
2022/06/17 11:00:43;;;;;;;1.87;1.77;;;;;;;23.54;40.30;102114.94;4954893;28;21062;-80
2022/06/17 11:03:21;;;;;;;2.93;2.13;;;;;;;23.80;42.51;102159.06;4955659;28;20216;-80
2022/06/17 11:05:56;;;;;;;2.00;1.80;;;;;;;24.15;41.45;102103.16;4955238;28;20654;-80
2022/06/17 11:08:25;;;;;;;1.90;1.80;;;;;;;24.45;40.41;102095.41;4954464;28;20234;-80
2022/06/17 11:10:54;;;;;;;2.30;1.80;;;;;;;24.66;39.67;102152.22;4956156;28;20212;-79
2022/06/17 11:13:21;;;;;;;2.40;2.20;;;;;;;24.18;39.51;102173.25;4965395;28;20212;-78
2022/06/17 11:15:52;;;;;;;2.93;2.17;;;;;;;24.29;39.75;102161.19;4964428;28;20208;-78
2022/06/17 11:18:30;;;;;;;2.90;2.00;;;;;;;24.38;39.58;102158.06;4962530;28;20303;-79
2022/06/17 11:21:02;;;;;;;3.40;2.30;;;;;;;24.28;41.04;102151.44;4955112;28;20214;-80
2022/06/17 11:23:31;;;;;;;4.00;1.90;;;;;;;24.54;42.04;102108.31;4954822;28;20236;-80
2022/06/17 11:26:12;;;;;;;3.60;2.00;;;;;;;24.76;40.51;102062.66;4954885;28;20271;-79
2022/06/17 11:28:41;;;;;;;2.40;1.90;;;;;;;24.69;39.14;102124.50;4954535;28;20228;-80
2022/06/17 11:31:13;;;;;;;2.80;2.47;;;;;;;24.49;38.81;102152.19;4954966;28;20280;-79
2022/06/17 11:33:56;;;;;;;2.40;2.23;;;;;;;24.38;39.61;102129.56;4954915;28;20243;-79
2022/06/17 11:36:26;;;;;;;1.80;1.70;;;;;;;24.35;39.16;102099.47;4955321;28;20349;-80
2022/06/17 11:38:52;;;;;;;3.70;2.00;;;;;;;24.43;39.18;102113.31;4954543;28;20726;-80
2022/06/17 11:41:21;;;;;;;2.00;1.90;;;;;;;24.42;37.99;102073.31;4955086;28;20219;-79
2022/06/17 11:43:48;;;;;;;2.03;1.83;;;;;;;24.33;39.18;102144.06;4954694;28;20205;-80
2022/06/17 11:46:21;;;;;;;2.33;2.20;;;;;;;24.10;39.76;102164.75;4954837;28;20232;-79